createdAt,value
2018-12-09T00:00:21.596Z,9.40
2018-12-09T00:05:00.346Z,9.40
2018-12-09T00:09:39.157Z,9.50
2018-12-09T00:14:18.011Z,9.50
2018-12-09T00:18:56.764Z,9.40
2018-12-09T00:23:35.503Z,9.40
2018-12-09T00:28:14.279Z,9.50
2018-12-09T00:32:53.077Z,9.50
2018-12-09T00:37:31.873Z,9.50
2018-12-09T00:42:10.636Z,9.50
2018-12-09T00:46:49.528Z,9.50
2018-12-09T00:51:28.581Z,9.50
2018-12-09T00:56:07.470Z,9.40
2018-12-09T01:00:46.108Z,9.40
2018-12-09T01:05:24.974Z,9.40
2018-12-09T01:10:04.882Z,9.40
2018-12-09T01:14:43.623Z,9.10
2018-12-09T01:19:22.429Z,8.50
2018-12-09T01:24:01.201Z,8.10
2018-12-09T01:28:40.579Z,7.90
2018-12-09T01:33:19.280Z,7.70
2018-12-09T01:37:58.115Z,7.70
2018-12-09T01:42:36.795Z,7.60
2018-12-09T01:47:15.625Z,7.60
2018-12-09T01:51:54.551Z,7.60
2018-12-09T01:56:33.413Z,7.60
2018-12-09T02:01:12.151Z,7.60
2018-12-09T02:05:50.947Z,7.60
2018-12-09T02:10:29.704Z,7.70
2018-12-09T02:15:08.456Z,7.70
2018-12-09T02:19:47.402Z,7.80
2018-12-09T02:24:26.284Z,7.90
2018-12-09T02:29:05.183Z,8.00
2018-12-09T02:33:43.970Z,8.10
2018-12-09T02:38:22.852Z,8.20
2018-12-09T02:43:01.870Z,8.30
2018-12-09T02:47:41.177Z,8.40
2018-12-09T02:52:20.084Z,8.50
2018-12-09T02:56:58.922Z,8.50
2018-12-09T03:01:37.732Z,8.50
2018-12-09T03:06:16.456Z,8.50
2018-12-09T03:10:55.319Z,8.50
2018-12-09T03:15:34.202Z,8.40
2018-12-09T03:20:12.810Z,8.40
2018-12-09T03:24:51.491Z,8.50
2018-12-09T03:29:30.294Z,8.50
2018-12-09T03:34:09.087Z,8.50
2018-12-09T03:38:47.759Z,8.60
2018-12-09T03:43:27.152Z,8.60
2018-12-09T03:48:05.985Z,8.70
2018-12-09T03:52:44.921Z,8.60
2018-12-09T03:57:23.695Z,8.70
2018-12-09T04:02:02.342Z,8.70
2018-12-09T04:06:41.100Z,8.70
2018-12-09T04:11:19.883Z,8.70
2018-12-09T04:15:58.610Z,8.70
2018-12-09T04:20:37.419Z,8.80
2018-12-09T04:25:16.283Z,8.80
2018-12-09T04:29:54.917Z,8.80
2018-12-09T04:34:33.692Z,8.80
2018-12-09T04:39:12.440Z,8.80
2018-12-09T04:43:51.536Z,8.80
2018-12-09T04:48:30.383Z,8.80
2018-12-09T04:53:09.325Z,8.70
2018-12-09T04:57:48.067Z,8.70
2018-12-09T05:02:26.824Z,8.60
2018-12-09T05:07:05.600Z,8.60
2018-12-09T05:11:44.795Z,8.50
2018-12-09T05:16:23.677Z,8.40
2018-12-09T05:21:02.334Z,8.40
2018-12-09T05:25:41.152Z,8.40
2018-12-09T05:30:20.156Z,8.30
2018-12-09T05:34:59.172Z,8.20
2018-12-09T05:39:37.988Z,8.20
2018-12-09T05:44:17.062Z,8.10
2018-12-09T05:48:55.986Z,8.10
2018-12-09T05:53:34.900Z,8.00
2018-12-09T05:58:13.715Z,7.90
2018-12-09T06:02:55.455Z,7.90
2018-12-09T06:07:34.234Z,7.90
2018-12-09T06:12:13.527Z,8.00
2018-12-09T06:16:52.156Z,8.00
2018-12-09T06:21:30.899Z,8.00
2018-12-09T06:26:09.608Z,8.00
2018-12-09T06:30:48.371Z,8.10
2018-12-09T06:35:27.199Z,8.00
2018-12-09T06:40:06.134Z,8.10
2018-12-09T06:44:45.287Z,8.00
2018-12-09T06:49:24.019Z,8.10
2018-12-09T06:54:02.699Z,8.10
2018-12-09T06:58:41.661Z,8.00
2018-12-09T07:03:20.323Z,8.10
2018-12-09T07:07:59.241Z,8.10
2018-12-09T07:12:37.983Z,8.10
2018-12-09T07:17:16.751Z,8.10
2018-12-09T07:21:55.783Z,8.00
2018-12-09T07:26:34.567Z,7.80
2018-12-09T07:31:13.327Z,7.80
2018-12-09T07:35:52.151Z,7.80
2018-12-09T07:40:30.943Z,7.70
2018-12-09T07:45:09.753Z,7.70
2018-12-09T07:49:48.507Z,7.70
2018-12-09T07:54:27.724Z,7.70
2018-12-09T07:59:08.507Z,7.60
2018-12-09T08:03:47.353Z,7.60
2018-12-09T08:08:25.990Z,7.60
2018-12-09T08:13:04.879Z,7.60
2018-12-09T08:17:43.720Z,7.60
2018-12-09T08:22:22.367Z,7.70
2018-12-09T08:27:01.360Z,7.70
2018-12-09T08:31:40.065Z,7.70
2018-12-09T08:36:18.853Z,7.70
2018-12-09T08:40:57.778Z,7.70
2018-12-09T08:45:36.726Z,7.70
2018-12-09T08:50:15.894Z,7.70
2018-12-09T08:54:54.705Z,7.60
2018-12-09T08:59:33.630Z,7.50
2018-12-09T09:04:12.439Z,7.50
2018-12-09T09:08:51.308Z,7.50
2018-12-09T09:13:30.168Z,7.50
2018-12-09T09:18:08.960Z,7.50
2018-12-09T09:22:47.813Z,7.50
2018-12-09T09:27:26.916Z,7.50
2018-12-09T09:32:05.895Z,7.50
2018-12-09T09:36:44.649Z,7.60
2018-12-09T09:41:23.662Z,7.70
2018-12-09T09:46:02.372Z,7.70
2018-12-09T09:50:41.074Z,7.70
2018-12-09T09:55:19.915Z,7.80
2018-12-09T09:59:58.750Z,7.80
2018-12-09T10:04:37.419Z,7.90
2018-12-09T10:09:16.087Z,7.90
2018-12-09T10:13:54.990Z,7.90
2018-12-09T10:18:33.633Z,7.90
2018-12-09T10:23:12.465Z,8.00
2018-12-09T10:27:51.296Z,8.00
2018-12-09T10:32:30.015Z,8.10
2018-12-09T10:37:08.846Z,8.10
2018-12-09T10:41:47.569Z,8.20
2018-12-09T10:46:26.444Z,8.20
2018-12-09T10:51:05.265Z,8.30
2018-12-09T10:55:43.907Z,8.30
2018-12-09T11:00:28.355Z,8.20
2018-12-09T11:05:07.278Z,8.10
2018-12-09T11:09:46.039Z,7.90
2018-12-09T11:14:24.843Z,7.80
2018-12-09T11:19:03.622Z,7.70
2018-12-09T11:23:42.361Z,7.70
2018-12-09T11:28:21.609Z,7.60
2018-12-09T11:33:00.430Z,7.60
2018-12-09T11:37:39.800Z,7.70
2018-12-09T11:42:18.488Z,7.80
2018-12-09T11:46:57.375Z,7.80
2018-12-09T11:51:36.240Z,7.80
2018-12-09T11:56:14.927Z,7.80
2018-12-09T12:00:53.988Z,7.80
2018-12-09T12:05:32.909Z,7.90
2018-12-09T12:10:11.612Z,7.90
2018-12-09T12:14:50.443Z,7.90
2018-12-09T12:19:29.138Z,7.90
2018-12-09T12:24:08.094Z,8.00
2018-12-09T12:28:46.857Z,8.00
2018-12-09T12:33:25.540Z,8.00
2018-12-09T12:38:04.402Z,8.00
2018-12-09T12:42:43.143Z,8.00
2018-12-09T12:47:21.920Z,8.00
2018-12-09T12:52:00.683Z,8.20
2018-12-09T12:56:40.258Z,8.60
2018-12-09T13:01:18.940Z,8.80
2018-12-09T13:05:58.054Z,8.90
2018-12-09T13:10:36.929Z,8.80
2018-12-09T13:15:15.724Z,8.70
2018-12-09T13:19:54.592Z,8.60
2018-12-09T13:24:33.300Z,8.50
2018-12-09T13:29:12.180Z,8.40
2018-12-09T13:33:51.255Z,8.30
2018-12-09T13:38:30.019Z,8.30
2018-12-09T13:43:08.947Z,8.30
2018-12-09T13:47:47.689Z,8.30
2018-12-09T13:52:26.535Z,8.40
2018-12-09T13:57:05.317Z,8.40
2018-12-09T14:01:43.909Z,8.40
2018-12-09T14:06:23.054Z,8.20
2018-12-09T14:11:01.896Z,8.10
2018-12-09T14:15:40.709Z,8.10
2018-12-09T14:20:19.591Z,8.20
2018-12-09T14:24:58.483Z,8.20
2018-12-09T14:29:37.272Z,8.30
2018-12-09T14:34:16.145Z,8.20
2018-12-09T14:38:55.068Z,8.10
2018-12-09T14:43:34.008Z,8.10
2018-12-09T14:48:12.836Z,8.10
2018-12-09T14:52:51.545Z,8.10
2018-12-09T14:57:30.356Z,8.00
2018-12-09T15:02:09.104Z,8.00
2018-12-09T15:06:47.981Z,7.90
2018-12-09T15:11:27.335Z,7.90
2018-12-09T15:16:06.168Z,8.00
2018-12-09T15:20:44.902Z,8.00
2018-12-09T15:25:23.588Z,7.90
2018-12-09T15:30:02.424Z,7.90
2018-12-09T15:34:41.176Z,7.90
2018-12-09T15:39:19.900Z,7.90
2018-12-09T15:43:58.620Z,7.90
2018-12-09T15:48:37.223Z,7.80
2018-12-09T15:53:16.062Z,7.80
2018-12-09T15:57:54.764Z,7.70
2018-12-09T16:02:33.529Z,7.70
2018-12-09T16:07:12.492Z,7.70
2018-12-09T16:11:51.276Z,7.70
2018-12-09T16:16:30.028Z,7.70
2018-12-09T16:21:08.753Z,7.70
2018-12-09T16:25:47.621Z,7.70
2018-12-09T16:30:26.324Z,7.70
2018-12-09T16:35:06.547Z,7.70
2018-12-09T16:39:45.352Z,7.70
2018-12-09T16:44:24.082Z,7.70
2018-12-09T16:49:03.093Z,7.70
2018-12-09T16:53:41.868Z,7.70
2018-12-09T16:58:20.602Z,7.70
2018-12-09T17:02:59.392Z,7.70
2018-12-09T17:07:42.075Z,7.70
2018-12-09T17:12:19.185Z,7.70
2018-12-09T17:16:57.810Z,7.70
2018-12-09T17:21:36.724Z,7.60
2018-12-09T17:26:15.936Z,7.60
2018-12-09T17:30:54.642Z,7.50
2018-12-09T17:35:33.276Z,7.40
2018-12-09T17:40:11.987Z,7.40
2018-12-09T17:44:50.831Z,7.30
2018-12-09T17:49:29.700Z,7.20
2018-12-09T17:54:08.510Z,7.00
2018-12-09T17:58:47.388Z,6.90
2018-12-09T18:03:26.078Z,6.80
2018-12-09T18:08:04.996Z,6.80
2018-12-09T18:12:48.067Z,6.70
2018-12-09T18:17:24.466Z,6.80
2018-12-09T18:22:03.197Z,6.70
2018-12-09T18:26:41.819Z,6.70
2018-12-09T18:31:20.906Z,6.70
2018-12-09T18:35:59.556Z,6.60
2018-12-09T18:40:38.451Z,6.50
2018-12-09T18:45:17.133Z,6.50
2018-12-09T18:49:56.057Z,6.40
2018-12-09T18:54:35.364Z,6.50
2018-12-09T18:59:14.343Z,6.50
2018-12-09T19:03:53.291Z,6.50
2018-12-09T19:08:31.962Z,6.50
2018-12-09T19:13:10.623Z,6.50
2018-12-09T19:17:49.261Z,6.50
2018-12-09T19:22:28.023Z,6.60
2018-12-09T19:27:06.799Z,6.60
2018-12-09T19:31:45.495Z,6.70
2018-12-09T19:36:24.368Z,6.70
2018-12-09T19:41:03.360Z,6.80
2018-12-09T19:45:42.149Z,6.90
2018-12-09T19:50:20.887Z,6.90
2018-12-09T19:54:59.664Z,7.00
2018-12-09T19:59:38.505Z,7.00
2018-12-09T20:04:17.219Z,7.10
2018-12-09T20:08:56.103Z,7.10
2018-12-09T20:13:34.810Z,7.10
2018-12-09T20:18:13.682Z,7.20
2018-12-09T20:22:52.523Z,7.20
2018-12-09T20:27:31.232Z,7.20
2018-12-09T20:32:09.945Z,7.10
2018-12-09T20:36:48.860Z,7.10
2018-12-09T20:41:28.471Z,7.10
2018-12-09T20:46:07.309Z,7.00
2018-12-09T20:50:46.145Z,7.00
2018-12-09T20:55:25.064Z,6.90
2018-12-09T21:00:04.425Z,6.80
2018-12-09T21:04:43.231Z,6.70
2018-12-09T21:09:22.058Z,6.60
2018-12-09T21:14:00.837Z,6.40
2018-12-09T21:18:39.522Z,6.20
2018-12-09T21:23:18.373Z,5.90
2018-12-09T21:27:57.176Z,5.80
2018-12-09T21:32:36.108Z,5.70
2018-12-09T21:37:15.010Z,5.50
2018-12-09T21:41:54.908Z,5.40
2018-12-09T21:46:33.619Z,5.20
2018-12-09T21:51:12.477Z,5.20
2018-12-09T21:55:51.430Z,5.10
2018-12-09T22:00:30.264Z,5.10
2018-12-09T22:05:08.980Z,5.10
2018-12-09T22:09:47.639Z,5.10
2018-12-09T22:14:26.454Z,5.20
2018-12-09T22:19:05.825Z,5.30
2018-12-09T22:23:45.161Z,5.40
2018-12-09T22:28:23.932Z,5.60
2018-12-09T22:33:02.764Z,5.70
2018-12-09T22:37:41.595Z,5.80
2018-12-09T22:42:20.442Z,5.80
2018-12-09T22:46:59.116Z,5.90
2018-12-09T22:51:37.969Z,6.00
2018-12-09T22:56:16.798Z,6.00
2018-12-09T23:01:01.360Z,6.10
2018-12-09T23:05:40.125Z,6.10
2018-12-09T23:10:19.208Z,6.20
2018-12-09T23:14:58.101Z,6.10
2018-12-09T23:19:36.935Z,6.10
2018-12-09T23:24:15.623Z,6.10
2018-12-09T23:28:54.298Z,6.00
2018-12-09T23:33:33.252Z,5.80
2018-12-09T23:38:12.400Z,5.70
2018-12-09T23:42:51.188Z,5.60
2018-12-09T23:47:30.169Z,5.40
2018-12-09T23:52:09.215Z,5.40
2018-12-09T23:56:47.928Z,5.30
